createdAt,value
2022-08-22T00:01:34.057Z,14.19
2022-08-22T00:02:45.054Z,16.82
2022-08-22T00:02:46.055Z,15.43
2022-08-22T00:02:54.938Z,14.12
2022-08-22T00:02:56.261Z,15.28
2022-08-22T00:02:57.281Z,16.07
2022-08-22T00:02:58.481Z,15.74
2022-08-22T00:03:15.317Z,13.97
2022-08-22T00:04:18.133Z,13.99
2022-08-22T00:06:59.874Z,13.79
2022-08-22T00:09:39.172Z,13.64
2022-08-22T00:12:22.625Z,13.54
2022-08-22T00:15:02.931Z,13.52
2022-08-22T00:17:48.751Z,13.55
2022-08-22T00:20:28.161Z,13.60
2022-08-22T00:23:17.476Z,13.73
2022-08-22T00:26:01.443Z,13.88
2022-08-22T00:28:39.119Z,14.04
2022-08-22T00:31:23.785Z,14.14
2022-08-22T00:34:01.349Z,14.21
2022-08-22T00:36:40.514Z,14.26
2022-08-22T00:39:18.568Z,14.34
2022-08-22T00:42:36.619Z,14.47
2022-08-22T00:45:45.831Z,14.84
2022-08-22T00:48:41.667Z,15.07
2022-08-22T00:52:14.379Z,15.25
2022-08-22T00:55:07.982Z,15.18
2022-08-22T00:58:02.966Z,15.10
2022-08-22T01:00:39.931Z,14.92
2022-08-22T01:03:46.749Z,14.61
2022-08-22T01:06:29.348Z,14.37
2022-08-22T01:09:15.380Z,14.27
2022-08-22T01:12:34.162Z,14.21
2022-08-22T01:15:09.775Z,14.20
2022-08-22T01:18:04.280Z,14.28
2022-08-22T01:21:37.882Z,14.37
2022-08-22T01:27:57.638Z,14.64
2022-08-22T01:31:20.756Z,14.77
2022-08-22T01:34:45.566Z,14.82
2022-08-22T01:38:01.969Z,14.82
2022-08-22T01:41:20.463Z,14.81
2022-08-22T01:44:25.787Z,14.77
2022-08-22T01:47:05.047Z,14.77
2022-08-22T01:49:47.984Z,14.70
2022-08-22T01:52:30.144Z,14.75
2022-08-22T01:55:08.000Z,14.69
2022-08-22T01:57:53.227Z,14.63
2022-08-22T02:00:35.207Z,14.62
2022-08-22T02:03:24.227Z,14.61
2022-08-22T02:06:03.961Z,14.62
2022-08-22T02:08:45.736Z,14.54
2022-08-22T02:11:39.563Z,14.48
2022-08-22T02:14:27.331Z,14.45
2022-08-22T02:17:10.403Z,14.41
2022-08-22T02:19:51.180Z,14.36
2022-08-22T02:22:33.985Z,14.38
2022-08-22T02:25:13.389Z,14.36
2022-08-22T02:27:56.681Z,14.26
2022-08-22T02:30:43.144Z,14.27
2022-08-22T02:33:27.605Z,14.19
2022-08-22T02:36:03.528Z,14.20
2022-08-22T02:38:39.835Z,14.16
2022-08-22T02:41:22.838Z,14.08
2022-08-22T02:43:58.141Z,14.07
2022-08-22T02:46:43.113Z,14.07
2022-08-22T02:49:23.537Z,14.01
2022-08-22T02:52:08.197Z,14.00
2022-08-22T02:54:48.458Z,13.99
2022-08-22T02:57:31.456Z,13.96
2022-08-22T03:00:31.313Z,13.91
2022-08-22T03:03:16.977Z,13.82
2022-08-22T03:06:01.403Z,13.77
2022-08-22T03:08:36.260Z,13.82
2022-08-22T03:11:26.952Z,13.73
2022-08-22T03:14:15.107Z,13.68
2022-08-22T03:16:53.711Z,13.71
2022-08-22T03:19:32.833Z,13.70
2022-08-22T03:22:08.386Z,13.68
2022-08-22T03:24:51.515Z,13.71
2022-08-22T03:27:33.152Z,13.66
2022-08-22T03:30:11.189Z,13.69
2022-08-22T03:32:54.575Z,13.63
2022-08-22T03:35:38.490Z,13.62
2022-08-22T03:38:21.834Z,13.59
2022-08-22T03:41:16.459Z,13.53
2022-08-22T03:44:11.696Z,13.51
2022-08-22T03:47:28.304Z,13.48
2022-08-22T03:50:44.853Z,13.41
2022-08-22T03:53:54.569Z,13.32
2022-08-22T03:57:01.027Z,13.23
2022-08-22T04:00:10.663Z,13.26
2022-08-22T04:03:13.095Z,13.24
2022-08-22T04:06:27.309Z,13.18
2022-08-22T04:10:15.894Z,13.23
2022-08-22T04:13:01.376Z,13.31
2022-08-22T04:16:07.996Z,13.38
2022-08-22T04:19:13.621Z,13.53
2022-08-22T04:22:08.489Z,13.57
2022-08-22T04:24:57.270Z,13.54
2022-08-22T04:27:33.975Z,13.60
2022-08-22T04:30:20.836Z,13.73
2022-08-22T04:32:59.713Z,13.88
2022-08-22T04:35:35.327Z,14.07
2022-08-22T04:38:13.393Z,14.24
2022-08-22T04:40:50.212Z,14.30
2022-08-22T04:43:26.981Z,14.29
2022-08-22T04:46:03.434Z,14.11
2022-08-22T04:48:41.325Z,14.08
2022-08-22T04:51:22.022Z,13.94
2022-08-22T04:54:25.226Z,13.87
2022-08-22T04:57:15.290Z,13.77
2022-08-22T04:59:44.970Z,13.81
2022-08-22T05:02:24.468Z,13.89
2022-08-22T05:05:04.900Z,13.93
2022-08-22T05:07:47.603Z,13.91
2022-08-22T05:10:33.523Z,14.09
2022-08-22T05:13:11.175Z,14.19
2022-08-22T05:15:45.845Z,14.19
2022-08-22T05:18:23.536Z,14.26
2022-08-22T05:20:59.814Z,14.33
2022-08-22T05:23:32.284Z,14.41
2022-08-22T05:26:06.179Z,14.45
2022-08-22T05:28:38.343Z,14.45
2022-08-22T05:31:13.259Z,14.55
2022-08-22T05:33:48.252Z,14.68
2022-08-22T05:36:27.014Z,14.90
2022-08-22T05:39:03.527Z,15.13
2022-08-22T05:41:39.929Z,15.49
2022-08-22T05:44:19.884Z,15.85
2022-08-22T05:46:57.361Z,16.23
2022-08-22T05:49:37.398Z,16.58
2022-08-22T05:52:17.890Z,16.79
2022-08-22T05:54:57.591Z,16.62
2022-08-22T05:57:34.754Z,16.66
2022-08-22T06:00:10.850Z,16.75
2022-08-22T06:02:59.045Z,16.88
2022-08-22T06:05:31.923Z,17.07
2022-08-22T06:08:09.153Z,17.37
2022-08-22T06:10:44.111Z,18.01
2022-08-22T06:13:25.487Z,18.56
2022-08-22T06:16:06.748Z,18.89
2022-08-22T06:18:41.052Z,19.37
2022-08-22T06:21:18.845Z,19.77
2022-08-22T06:23:57.561Z,19.81
2022-08-22T06:26:31.111Z,19.68
2022-08-22T06:29:03.718Z,20.10
2022-08-22T06:31:37.927Z,20.50
2022-08-22T06:34:12.548Z,20.57
2022-08-22T06:36:46.060Z,20.78
2022-08-22T06:39:23.591Z,20.72
2022-08-22T06:42:01.116Z,20.90
2022-08-22T06:44:35.442Z,21.19
2022-08-22T06:47:11.914Z,21.60
2022-08-22T06:49:43.853Z,22.20
2022-08-22T06:52:20.220Z,22.56
2022-08-22T06:54:59.202Z,22.82
2022-08-22T06:57:34.239Z,23.20
2022-08-22T07:00:09.794Z,23.28
2022-08-22T07:02:44.186Z,23.54
2022-08-22T07:05:20.119Z,23.72
2022-08-22T07:07:50.342Z,23.17
2022-08-22T07:10:24.739Z,23.34
2022-08-22T07:12:57.762Z,23.28
2022-08-22T07:15:36.630Z,22.96
2022-08-22T07:18:09.084Z,22.24
2022-08-22T07:20:45.273Z,22.22
2022-08-22T07:23:32.616Z,22.15
2022-08-22T07:26:22.977Z,22.86
2022-08-22T07:28:58.055Z,23.67
2022-08-22T07:31:38.238Z,23.66
2022-08-22T07:34:29.348Z,23.83
2022-08-22T07:37:04.175Z,23.98
2022-08-22T07:39:39.521Z,24.36
2022-08-22T07:42:17.256Z,24.13
2022-08-22T07:45:06.944Z,24.31
2022-08-22T07:48:00.588Z,24.61
2022-08-22T07:50:33.665Z,24.30
2022-08-22T07:53:13.641Z,24.23
2022-08-22T07:55:49.427Z,24.40
2022-08-22T07:58:23.061Z,24.62
2022-08-22T08:00:54.077Z,25.32
2022-08-22T08:03:26.835Z,25.33
2022-08-22T08:05:56.469Z,25.92
2022-08-22T08:08:34.521Z,25.91
2022-08-22T08:11:07.150Z,26.00
2022-08-22T08:13:42.856Z,25.34
2022-08-22T08:16:19.334Z,26.12
2022-08-22T08:18:52.112Z,25.80
2022-08-22T08:21:31.084Z,25.95
2022-08-22T08:24:02.205Z,26.76
2022-08-22T08:26:36.652Z,26.68
2022-08-22T08:29:08.217Z,26.87
2022-08-22T08:31:43.380Z,26.78
2022-08-22T08:34:24.967Z,27.00
2022-08-22T08:36:59.384Z,26.33
2022-08-22T08:39:36.452Z,26.03
2022-08-22T08:42:55.182Z,25.97
2022-08-22T08:45:51.732Z,26.01
2022-08-22T08:48:53.737Z,26.06
2022-08-22T08:51:53.674Z,26.94
2022-08-22T08:54:56.010Z,26.96
2022-08-22T08:57:48.135Z,27.04
2022-08-22T09:00:29.080Z,27.46
2022-08-22T09:06:30.644Z,27.22
2022-08-22T09:09:17.222Z,27.68
2022-08-22T09:12:18.419Z,28.14
2022-08-22T09:15:26.040Z,28.77
2022-08-22T09:18:33.281Z,28.84
2022-08-22T09:21:30.765Z,28.35
2022-08-22T09:24:49.099Z,28.31
2022-08-22T09:27:31.771Z,27.71
2022-08-22T09:30:11.549Z,28.44
2022-08-22T09:32:55.751Z,28.10
2022-08-22T09:35:42.472Z,27.63
2022-08-22T09:38:29.028Z,27.94
2022-08-22T09:41:14.547Z,28.09
2022-08-22T09:43:50.304Z,28.41
2022-08-22T09:46:31.510Z,27.44
2022-08-22T09:49:14.108Z,28.13
2022-08-22T09:52:05.287Z,28.10
2022-08-22T09:54:51.924Z,28.27
2022-08-22T09:57:35.622Z,28.48
2022-08-22T10:00:26.670Z,28.24
2022-08-22T10:03:17.095Z,28.30
2022-08-22T10:05:54.908Z,28.20
2022-08-22T10:08:45.914Z,29.35
2022-08-22T10:11:28.712Z,29.47
2022-08-22T10:14:06.011Z,29.94
2022-08-22T10:17:01.692Z,30.19
2022-08-22T10:19:40.135Z,29.22
2022-08-22T10:22:30.356Z,30.10
2022-08-22T10:25:33.173Z,29.58
2022-08-22T10:28:21.212Z,28.92
2022-08-22T10:31:09.457Z,29.74
2022-08-22T10:33:48.883Z,30.00
2022-08-22T10:36:32.374Z,29.51
2022-08-22T10:39:05.526Z,29.98
2022-08-22T10:42:00.223Z,30.22
2022-08-22T10:44:43.100Z,30.53
2022-08-22T10:47:22.008Z,30.97
2022-08-22T10:49:56.601Z,31.83
2022-08-22T10:52:33.123Z,32.07
2022-08-22T10:55:13.326Z,32.11
2022-08-22T10:58:06.791Z,31.16
2022-08-22T11:00:50.444Z,29.15
2022-08-22T11:03:32.867Z,27.90
2022-08-22T11:06:07.700Z,27.13
2022-08-22T11:09:16.173Z,28.12
2022-08-22T11:11:50.242Z,27.93
2022-08-22T11:15:12.421Z,28.44
2022-08-22T11:18:20.962Z,28.64
2022-08-22T11:21:01.740Z,28.60
2022-08-22T11:23:46.155Z,28.74
2022-08-22T11:26:41.682Z,29.19
2022-08-22T11:29:43.472Z,28.26
2022-08-22T11:32:25.725Z,28.41
2022-08-22T11:35:04.388Z,28.87
2022-08-22T11:37:54.949Z,29.21
2022-08-22T11:40:43.639Z,29.08
2022-08-22T11:43:37.243Z,28.79
2022-08-22T11:46:20.922Z,28.80
2022-08-22T11:49:25.611Z,29.34
2022-08-22T11:52:19.970Z,30.47
2022-08-22T11:55:12.463Z,31.51
2022-08-22T11:57:46.018Z,31.25
2022-08-22T12:00:34.932Z,30.69
2022-08-22T12:03:44.945Z,31.28
2022-08-22T12:06:41.766Z,31.11
2022-08-22T12:09:20.380Z,31.30
2022-08-22T12:12:17.116Z,30.86
2022-08-22T12:14:56.269Z,31.44
2022-08-22T12:18:02.328Z,30.77
2022-08-22T12:21:09.191Z,30.82
2022-08-22T12:24:19.125Z,32.10
2022-08-22T12:27:14.799Z,32.10
2022-08-22T12:30:20.772Z,29.83
2022-08-22T12:33:28.993Z,29.94
2022-08-22T12:36:17.740Z,31.59
2022-08-22T12:39:17.465Z,33.25
2022-08-22T12:42:29.814Z,32.23
2022-08-22T12:45:29.048Z,31.86
2022-08-22T12:48:17.882Z,31.10
2022-08-22T12:50:56.020Z,30.50
2022-08-22T12:53:59.573Z,29.83
2022-08-22T12:56:52.139Z,29.40
2022-08-22T12:59:31.238Z,29.53
2022-08-22T13:02:04.899Z,29.39
2022-08-22T13:04:35.725Z,29.10
2022-08-22T13:07:23.738Z,27.30
2022-08-22T13:09:57.773Z,25.79
2022-08-22T13:12:35.166Z,24.61
2022-08-22T13:15:25.459Z,25.12
2022-08-22T13:18:08.736Z,25.64
2022-08-22T13:20:51.077Z,25.56
2022-08-22T13:23:26.013Z,24.90
2022-08-22T13:26:07.451Z,24.69
2022-08-22T13:28:45.949Z,24.61
2022-08-22T13:31:26.753Z,25.11
2022-08-22T13:34:02.153Z,25.25
2022-08-22T13:36:41.045Z,25.59
2022-08-22T13:39:29.655Z,26.14
2022-08-22T13:42:14.228Z,27.35
2022-08-22T13:44:50.969Z,28.84
2022-08-22T13:47:22.439Z,29.82
2022-08-22T13:49:55.489Z,28.99
2022-08-22T13:52:32.295Z,28.99
2022-08-22T13:55:12.157Z,29.39
2022-08-22T13:58:03.053Z,29.16
2022-08-22T14:01:28.599Z,28.85
2022-08-22T14:04:05.592Z,28.72
2022-08-22T14:06:55.597Z,28.91
2022-08-22T14:09:43.126Z,28.69
2022-08-22T14:12:19.072Z,28.35
2022-08-22T14:14:55.895Z,27.79
2022-08-22T14:17:38.445Z,28.60
2022-08-22T14:20:32.680Z,27.95
2022-08-22T14:23:08.811Z,28.72
2022-08-22T14:25:40.487Z,29.37
2022-08-22T14:28:21.657Z,30.32
2022-08-22T14:31:03.539Z,29.68
2022-08-22T14:33:40.868Z,27.82
2022-08-22T14:36:19.237Z,27.73
2022-08-22T14:38:56.164Z,26.72
2022-08-22T14:41:55.420Z,26.30
2022-08-22T14:44:30.456Z,26.97
2022-08-22T14:47:32.204Z,28.61
2022-08-22T14:49:59.428Z,27.19
2022-08-22T14:52:40.566Z,26.45
2022-08-22T14:55:17.143Z,25.21
2022-08-22T14:57:53.872Z,24.99
2022-08-22T15:00:34.941Z,24.49
2022-08-22T15:03:15.301Z,24.40
2022-08-22T15:05:51.031Z,24.10
2022-08-22T15:08:33.453Z,23.88
2022-08-22T15:11:22.116Z,23.68
2022-08-22T15:14:05.611Z,23.39
2022-08-22T15:16:38.132Z,23.38
2022-08-22T15:19:25.447Z,24.07
2022-08-22T15:22:20.044Z,24.37
2022-08-22T15:25:02.126Z,24.92
2022-08-22T15:27:35.733Z,24.54
2022-08-22T15:30:20.617Z,24.70
2022-08-22T15:32:50.167Z,25.41
2022-08-22T15:35:31.492Z,26.05
2022-08-22T15:38:06.627Z,26.16
2022-08-22T15:40:42.279Z,25.82
2022-08-22T15:43:23.038Z,25.56
2022-08-22T15:46:09.895Z,25.72
2022-08-22T15:48:56.759Z,25.75
2022-08-22T15:51:40.849Z,25.34
2022-08-22T15:54:24.665Z,25.28
2022-08-22T15:57:19.375Z,24.73
2022-08-22T15:59:58.888Z,24.03
2022-08-22T16:02:37.470Z,24.09
2022-08-22T16:05:23.904Z,23.92
2022-08-22T16:08:05.791Z,23.66
2022-08-22T16:10:42.446Z,23.33
2022-08-22T16:13:40.014Z,23.28
2022-08-22T16:16:34.602Z,23.29
2022-08-22T16:19:28.496Z,23.10
2022-08-22T16:22:15.529Z,23.03
2022-08-22T16:25:10.282Z,22.91
2022-08-22T16:27:55.175Z,22.91
2022-08-22T16:30:37.417Z,23.00
2022-08-22T16:33:08.809Z,22.96
2022-08-22T16:36:41.779Z,23.03
2022-08-22T16:39:29.670Z,23.24
2022-08-22T16:42:28.376Z,23.28
2022-08-22T16:45:13.684Z,23.51
2022-08-22T16:47:56.632Z,23.53
2022-08-22T16:50:36.453Z,23.54
2022-08-22T16:53:11.180Z,23.56
2022-08-22T16:56:13.660Z,23.43
2022-08-22T16:59:24.481Z,23.30
2022-08-22T17:02:26.089Z,23.30
2022-08-22T17:05:19.661Z,23.04
2022-08-22T17:08:12.182Z,22.86
2022-08-22T17:10:51.986Z,22.73
2022-08-22T17:13:49.942Z,22.55
2022-08-22T17:16:49.763Z,22.44
2022-08-22T17:19:39.312Z,22.23
2022-08-22T17:22:28.463Z,22.06
2022-08-22T17:25:21.767Z,21.89
2022-08-22T17:27:56.040Z,21.79
2022-08-22T17:30:37.009Z,21.59
2022-08-22T17:33:18.403Z,21.38
2022-08-22T17:36:07.155Z,21.30
2022-08-22T17:39:26.352Z,21.12
2022-08-22T17:42:16.543Z,20.93
2022-08-22T17:45:04.483Z,20.75
2022-08-22T17:47:45.804Z,20.56
2022-08-22T17:50:26.675Z,20.44
2022-08-22T17:53:04.476Z,20.21
2022-08-22T17:55:59.909Z,20.03
2022-08-22T17:58:43.695Z,19.92
2022-08-22T18:01:38.433Z,19.70
2022-08-22T18:04:16.646Z,19.50
2022-08-22T18:06:57.078Z,19.41
2022-08-22T18:09:39.920Z,19.17
2022-08-22T18:12:22.526Z,18.97
2022-08-22T18:14:59.285Z,18.77
2022-08-22T18:17:38.109Z,18.59
2022-08-22T18:20:17.038Z,18.46
2022-08-22T18:22:54.897Z,18.34
2022-08-22T18:25:44.612Z,18.21
2022-08-22T18:28:29.234Z,17.97
2022-08-22T18:31:02.073Z,17.74
2022-08-22T18:33:38.530Z,17.64
2022-08-22T18:36:16.001Z,17.57
2022-08-22T18:38:56.573Z,17.56
2022-08-22T18:41:36.877Z,17.48
2022-08-22T18:44:11.952Z,17.31
2022-08-22T18:46:47.181Z,17.18
2022-08-22T18:49:41.878Z,17.13
2022-08-22T18:52:38.362Z,16.94
2022-08-22T18:55:45.377Z,16.81
2022-08-22T18:58:49.433Z,16.70
2022-08-22T19:01:51.972Z,16.74
2022-08-22T19:04:54.504Z,16.75
2022-08-22T19:08:02.341Z,16.81
2022-08-22T19:10:55.481Z,16.76
2022-08-22T19:13:48.404Z,16.65
2022-08-22T19:17:16.294Z,16.55
2022-08-22T19:20:19.093Z,16.54
2022-08-22T19:22:51.069Z,16.57
2022-08-22T19:25:28.375Z,16.55
2022-08-22T19:28:26.658Z,16.52
2022-08-22T19:31:23.526Z,16.45
2022-08-22T19:34:15.848Z,16.42
2022-08-22T19:37:06.337Z,16.35
2022-08-22T19:39:55.501Z,16.33
2022-08-22T19:42:41.653Z,16.28
2022-08-22T19:45:26.564Z,16.22
2022-08-22T19:47:59.419Z,16.16
2022-08-22T19:50:34.539Z,16.09
2022-08-22T19:53:35.713Z,16.03
2022-08-22T19:56:23.943Z,16.05
2022-08-22T19:59:07.366Z,15.92
2022-08-22T20:01:56.047Z,15.84
2022-08-22T20:04:47.364Z,15.75
2022-08-22T20:07:27.702Z,15.63
2022-08-22T20:10:15.851Z,15.59
2022-08-22T20:13:19.103Z,15.48
2022-08-22T20:16:19.795Z,15.50
2022-08-22T20:19:20.165Z,15.46
2022-08-22T20:21:59.186Z,15.51
2022-08-22T20:24:40.006Z,15.45
2022-08-22T20:27:15.474Z,15.44
2022-08-22T20:30:03.267Z,15.39
2022-08-22T20:32:38.705Z,15.29
2022-08-22T20:35:08.790Z,15.26
2022-08-22T20:38:05.949Z,15.20
2022-08-22T20:40:55.377Z,15.12
2022-08-22T20:43:34.409Z,15.17
2022-08-22T20:46:23.983Z,15.14
2022-08-22T20:48:57.046Z,15.15
2022-08-22T20:51:29.232Z,15.14
2022-08-22T20:54:01.499Z,15.10
2022-08-22T20:56:48.721Z,15.01
2022-08-22T20:59:31.933Z,14.98
2022-08-22T21:02:13.925Z,14.91
2022-08-22T21:04:52.711Z,14.89
2022-08-22T21:07:29.625Z,14.91
2022-08-22T21:10:23.162Z,14.87
2022-08-22T21:13:10.973Z,14.85
2022-08-22T21:15:42.923Z,14.94
2022-08-22T21:18:14.842Z,14.92
2022-08-22T21:20:43.235Z,14.95
2022-08-22T21:23:16.846Z,14.91
2022-08-22T21:25:56.691Z,14.87
2022-08-22T21:28:35.941Z,14.80
2022-08-22T21:31:14.377Z,14.75
2022-08-22T21:33:48.305Z,14.69
2022-08-22T21:36:24.386Z,14.65
2022-08-22T21:38:56.037Z,14.65
2022-08-22T21:41:31.504Z,14.59
2022-08-22T21:44:28.878Z,14.60
2022-08-22T21:46:59.050Z,14.60
2022-08-22T21:49:31.083Z,14.65
2022-08-22T21:51:59.338Z,14.59
2022-08-22T21:54:40.843Z,14.45
2022-08-22T21:57:33.524Z,14.43
2022-08-22T22:00:02.200Z,14.35
2022-08-22T22:02:43.696Z,14.40
2022-08-22T22:05:17.151Z,14.45
2022-08-22T22:07:48.146Z,14.51
2022-08-22T22:10:20.192Z,14.52
2022-08-22T22:12:52.338Z,14.48
2022-08-22T22:15:23.240Z,14.40
2022-08-22T22:17:51.833Z,14.30
2022-08-22T22:20:23.974Z,14.18
2022-08-22T22:22:52.503Z,14.08
2022-08-22T22:25:40.704Z,13.97
2022-08-22T22:28:17.426Z,13.92
2022-08-22T22:30:50.464Z,13.90
2022-08-22T22:33:19.076Z,13.85
2022-08-22T22:35:50.516Z,13.75
2022-08-22T22:38:23.382Z,13.72
2022-08-22T22:40:52.897Z,13.68
2022-08-22T22:43:21.241Z,13.70
2022-08-22T22:45:49.958Z,13.77
2022-08-22T22:48:24.271Z,13.86
2022-08-22T22:50:55.830Z,13.99
2022-08-22T22:53:28.604Z,14.12
2022-08-22T22:56:10.070Z,14.33
2022-08-22T22:58:40.489Z,14.52
2022-08-22T23:01:11.164Z,14.52
2022-08-22T23:03:39.857Z,14.35
2022-08-22T23:06:14.906Z,14.19
2022-08-22T23:08:43.623Z,14.01
2022-08-22T23:11:15.325Z,13.82
2022-08-22T23:13:43.892Z,13.62
2022-08-22T23:16:16.950Z,13.64
2022-08-22T23:18:46.793Z,13.65
2022-08-22T23:21:21.052Z,13.61
2022-08-22T23:23:50.675Z,13.57
2022-08-22T23:26:19.330Z,13.50
2022-08-22T23:28:47.779Z,13.44
2022-08-22T23:31:19.689Z,13.44
2022-08-22T23:33:48.392Z,13.39
2022-08-22T23:36:21.553Z,13.47
2022-08-22T23:38:52.231Z,13.45
2022-08-22T23:41:21.902Z,13.34
2022-08-22T23:43:55.051Z,13.28
2022-08-22T23:46:26.567Z,13.20
2022-08-22T23:48:55.965Z,13.09
2022-08-22T23:51:26.859Z,13.03
2022-08-22T23:53:57.882Z,12.84
2022-08-22T23:56:30.545Z,12.85
2022-08-22T23:59:00.690Z,12.93
